sensor_id;sensor_type;location;lat;lon;timestamp;temperature;humidity
43561;DHT22;32305;46.410;17.394;2024-02-15T00:02:18;22.50;38.20
43561;DHT22;32305;46.410;17.394;2024-02-15T00:04:45;22.50;38.20
43561;DHT22;32305;46.410;17.394;2024-02-15T00:07:12;22.50;38.10
43561;DHT22;32305;46.410;17.394;2024-02-15T00:09:39;22.50;38.10
43561;DHT22;32305;46.410;17.394;2024-02-15T00:12:06;22.50;38.10
43561;DHT22;32305;46.410;17.394;2024-02-15T00:14:33;22.50;38.10
43561;DHT22;32305;46.410;17.394;2024-02-15T00:17:00;22.50;38.00
43561;DHT22;32305;46.410;17.394;2024-02-15T00:19:27;22.50;38.00
43561;DHT22;32305;46.410;17.394;2024-02-15T00:21:57;22.50;38.00
43561;DHT22;32305;46.410;17.394;2024-02-15T00:24:24;22.50;38.00
43561;DHT22;32305;46.410;17.394;2024-02-15T00:26:50;22.50;38.10
43561;DHT22;32305;46.410;17.394;2024-02-15T00:29:17;22.40;38.00
43561;DHT22;32305;46.410;17.394;2024-02-15T00:31:44;22.40;38.00
43561;DHT22;32305;46.410;17.394;2024-02-15T00:34:12;22.40;38.00
43561;DHT22;32305;46.410;17.394;2024-02-15T00:36:42;22.40;38.00
43561;DHT22;32305;46.410;17.394;2024-02-15T00:39:09;22.40;38.10
43561;DHT22;32305;46.410;17.394;2024-02-15T00:41:36;22.40;38.00
43561;DHT22;32305;46.410;17.394;2024-02-15T00:44:03;22.40;38.10
43561;DHT22;32305;46.410;17.394;2024-02-15T00:46:30;22.40;38.10
43561;DHT22;32305;46.410;17.394;2024-02-15T00:48:57;22.40;38.10
43561;DHT22;32305;46.410;17.394;2024-02-15T00:51:25;22.40;38.10
43561;DHT22;32305;46.410;17.394;2024-02-15T00:53:52;22.40;38.10
43561;DHT22;32305;46.410;17.394;2024-02-15T00:56:19;22.40;38.10
43561;DHT22;32305;46.410;17.394;2024-02-15T00:58:45;22.40;38.10
43561;DHT22;32305;46.410;17.394;2024-02-15T01:01:12;22.40;38.10
43561;DHT22;32305;46.410;17.394;2024-02-15T01:03:39;22.40;38.10
43561;DHT22;32305;46.410;17.394;2024-02-15T01:06:06;22.40;38.10
43561;DHT22;32305;46.410;17.394;2024-02-15T01:08:33;22.40;38.00
43561;DHT22;32305;46.410;17.394;2024-02-15T01:11:01;22.40;38.00
43561;DHT22;32305;46.410;17.394;2024-02-15T01:13:28;22.40;38.00
43561;DHT22;32305;46.410;17.394;2024-02-15T01:15:54;22.40;38.00
43561;DHT22;32305;46.410;17.394;2024-02-15T01:18:22;22.50;37.90
43561;DHT22;32305;46.410;17.394;2024-02-15T01:20:49;22.40;37.80
43561;DHT22;32305;46.410;17.394;2024-02-15T01:23:16;22.40;37.80
43561;DHT22;32305;46.410;17.394;2024-02-15T01:25:43;22.40;37.80
43561;DHT22;32305;46.410;17.394;2024-02-15T01:28:10;22.50;38.40
43561;DHT22;32305;46.410;17.394;2024-02-15T01:30:37;22.40;37.80
43561;DHT22;32305;46.410;17.394;2024-02-15T01:33:04;22.40;37.80
43561;DHT22;32305;46.410;17.394;2024-02-15T01:35:32;22.40;37.80
43561;DHT22;32305;46.410;17.394;2024-02-15T01:37:59;22.40;37.80
43561;DHT22;32305;46.410;17.394;2024-02-15T01:40:25;22.40;37.80
43561;DHT22;32305;46.410;17.394;2024-02-15T01:42:53;22.40;37.80
43561;DHT22;32305;46.410;17.394;2024-02-15T01:45:20;22.40;37.80
43561;DHT22;32305;46.410;17.394;2024-02-15T01:47:48;22.40;37.80
43561;DHT22;32305;46.410;17.394;2024-02-15T01:50:16;22.40;38.30
43561;DHT22;32305;46.410;17.394;2024-02-15T01:52:44;22.40;37.80
43561;DHT22;32305;46.410;17.394;2024-02-15T01:55:14;22.40;37.80
43561;DHT22;32305;46.410;17.394;2024-02-15T01:57:44;22.40;37.80
43561;DHT22;32305;46.410;17.394;2024-02-15T02:00:11;22.40;37.80
43561;DHT22;32305;46.410;17.394;2024-02-15T02:02:40;22.40;37.80
43561;DHT22;32305;46.410;17.394;2024-02-15T02:05:08;22.40;37.80
43561;DHT22;32305;46.410;17.394;2024-02-15T02:07:35;22.40;37.80
43561;DHT22;32305;46.410;17.394;2024-02-15T02:10:02;22.40;37.80
43561;DHT22;32305;46.410;17.394;2024-02-15T02:12:29;22.40;37.80
43561;DHT22;32305;46.410;17.394;2024-02-15T02:14:56;22.40;37.80
43561;DHT22;32305;46.410;17.394;2024-02-15T02:17:23;22.40;37.80
43561;DHT22;32305;46.410;17.394;2024-02-15T02:19:50;22.40;37.80
43561;DHT22;32305;46.410;17.394;2024-02-15T02:22:18;22.40;37.80
43561;DHT22;32305;46.410;17.394;2024-02-15T02:24:57;22.40;37.80
43561;DHT22;32305;46.410;17.394;2024-02-15T02:27:26;22.40;37.80
43561;DHT22;32305;46.410;17.394;2024-02-15T02:29:54;22.40;37.70
43561;DHT22;32305;46.410;17.394;2024-02-15T02:32:22;22.40;37.60
43561;DHT22;32305;46.410;17.394;2024-02-15T02:34:49;22.40;37.60
43561;DHT22;32305;46.410;17.394;2024-02-15T02:37:16;22.40;37.60
43561;DHT22;32305;46.410;17.394;2024-02-15T02:39:43;22.40;37.60
43561;DHT22;32305;46.410;17.394;2024-02-15T02:42:10;22.40;37.60
43561;DHT22;32305;46.410;17.394;2024-02-15T02:44:37;22.40;37.60
43561;DHT22;32305;46.410;17.394;2024-02-15T02:47:04;22.40;37.60
43561;DHT22;32305;46.410;17.394;2024-02-15T02:49:32;22.40;37.60
43561;DHT22;32305;46.410;17.394;2024-02-15T02:51:59;22.40;37.60
43561;DHT22;32305;46.410;17.394;2024-02-15T02:54:26;22.40;37.60
43561;DHT22;32305;46.410;17.394;2024-02-15T02:56:55;22.40;37.60
43561;DHT22;32305;46.410;17.394;2024-02-15T02:59:22;22.40;37.60
43561;DHT22;32305;46.410;17.394;2024-02-15T03:01:49;22.40;38.10
43561;DHT22;32305;46.410;17.394;2024-02-15T03:04:16;22.40;37.60
43561;DHT22;32305;46.410;17.394;2024-02-15T03:06:44;22.40;37.60
43561;DHT22;32305;46.410;17.394;2024-02-15T03:09:11;22.40;37.50
43561;DHT22;32305;46.410;17.394;2024-02-15T03:11:40;22.40;37.50
43561;DHT22;32305;46.410;17.394;2024-02-15T03:14:07;22.40;37.60
43561;DHT22;32305;46.410;17.394;2024-02-15T03:16:34;22.40;37.60
43561;DHT22;32305;46.410;17.394;2024-02-15T03:19:01;22.40;37.60
43561;DHT22;32305;46.410;17.394;2024-02-15T03:21:31;22.40;37.50
43561;DHT22;32305;46.410;17.394;2024-02-15T03:23:58;22.40;37.50
43561;DHT22;32305;46.410;17.394;2024-02-15T03:26:29;22.40;37.50
43561;DHT22;32305;46.410;17.394;2024-02-15T03:28:57;22.40;37.60
43561;DHT22;32305;46.410;17.394;2024-02-15T03:31:24;22.40;37.60
43561;DHT22;32305;46.410;17.394;2024-02-15T03:33:51;22.40;37.60
43561;DHT22;32305;46.410;17.394;2024-02-15T03:36:18;22.40;37.60
43561;DHT22;32305;46.410;17.394;2024-02-15T03:38:46;22.40;37.60
43561;DHT22;32305;46.410;17.394;2024-02-15T03:41:13;22.40;37.60
43561;DHT22;32305;46.410;17.394;2024-02-15T03:43:41;22.40;37.50
43561;DHT22;32305;46.410;17.394;2024-02-15T03:46:08;22.40;37.50
43561;DHT22;32305;46.410;17.394;2024-02-15T03:48:39;22.40;37.40
43561;DHT22;32305;46.410;17.394;2024-02-15T03:51:06;22.40;37.40
43561;DHT22;32305;46.410;17.394;2024-02-15T03:53:33;22.40;37.40
43561;DHT22;32305;46.410;17.394;2024-02-15T03:56:00;22.40;37.40
43561;DHT22;32305;46.410;17.394;2024-02-15T03:58:27;22.40;37.40
43561;DHT22;32305;46.410;17.394;2024-02-15T04:00:54;22.40;37.40
43561;DHT22;32305;46.410;17.394;2024-02-15T04:03:23;22.40;37.40
43561;DHT22;32305;46.410;17.394;2024-02-15T04:05:50;22.40;37.40
43561;DHT22;32305;46.410;17.394;2024-02-15T04:08:17;22.40;37.40
43561;DHT22;32305;46.410;17.394;2024-02-15T04:10:45;22.40;37.40
43561;DHT22;32305;46.410;17.394;2024-02-15T04:13:15;22.40;37.40
43561;DHT22;32305;46.410;17.394;2024-02-15T04:15:42;22.40;37.40
43561;DHT22;32305;46.410;17.394;2024-02-15T04:18:10;22.40;37.40
43561;DHT22;32305;46.410;17.394;2024-02-15T04:20:39;22.40;37.40
43561;DHT22;32305;46.410;17.394;2024-02-15T04:23:11;22.40;37.40
43561;DHT22;32305;46.410;17.394;2024-02-15T04:25:38;22.40;37.40
43561;DHT22;32305;46.410;17.394;2024-02-15T04:28:07;22.40;37.40
43561;DHT22;32305;46.410;17.394;2024-02-15T04:30:35;22.40;37.40
43561;DHT22;32305;46.410;17.394;2024-02-15T04:33:05;22.40;37.40
43561;DHT22;32305;46.410;17.394;2024-02-15T04:35:32;22.40;37.40
43561;DHT22;32305;46.410;17.394;2024-02-15T04:37:59;22.40;37.40
43561;DHT22;32305;46.410;17.394;2024-02-15T04:40:26;22.40;37.10
43561;DHT22;32305;46.410;17.394;2024-02-15T04:42:53;22.40;36.80
43561;DHT22;32305;46.410;17.394;2024-02-15T04:45:20;22.40;36.60
43561;DHT22;32305;46.410;17.394;2024-02-15T04:47:49;22.40;36.40
43561;DHT22;32305;46.410;17.394;2024-02-15T04:50:19;22.40;36.20
43561;DHT22;32305;46.410;17.394;2024-02-15T04:52:48;22.40;36.00
43561;DHT22;32305;46.410;17.394;2024-02-15T04:55:16;22.50;35.90
43561;DHT22;32305;46.410;17.394;2024-02-15T04:57:44;22.50;35.90
43561;DHT22;32305;46.410;17.394;2024-02-15T05:00:14;22.50;35.80
43561;DHT22;32305;46.410;17.394;2024-02-15T05:02:42;22.50;35.70
43561;DHT22;32305;46.410;17.394;2024-02-15T05:05:11;22.50;35.60
43561;DHT22;32305;46.410;17.394;2024-02-15T05:07:41;22.50;35.50
43561;DHT22;32305;46.410;17.394;2024-02-15T05:10:08;22.50;35.40
43561;DHT22;32305;46.410;17.394;2024-02-15T05:12:39;22.50;35.30
43561;DHT22;32305;46.410;17.394;2024-02-15T05:15:07;22.50;35.20
43561;DHT22;32305;46.410;17.394;2024-02-15T05:17:39;22.50;35.20
43561;DHT22;32305;46.410;17.394;2024-02-15T05:20:08;22.50;35.10
43561;DHT22;32305;46.410;17.394;2024-02-15T05:22:38;22.50;35.10
43561;DHT22;32305;46.410;17.394;2024-02-15T05:25:06;22.60;35.10
43561;DHT22;32305;46.410;17.394;2024-02-15T05:27:35;22.50;34.90
43561;DHT22;32305;46.410;17.394;2024-02-15T05:30:03;22.60;34.90
43561;DHT22;32305;46.410;17.394;2024-02-15T05:32:34;22.60;34.80
43561;DHT22;32305;46.410;17.394;2024-02-15T05:35:11;22.60;34.80
43561;DHT22;32305;46.410;17.394;2024-02-15T05:37:38;22.60;34.70
43561;DHT22;32305;46.410;17.394;2024-02-15T05:40:05;22.60;34.70
43561;DHT22;32305;46.410;17.394;2024-02-15T05:42:33;22.60;34.70
43561;DHT22;32305;46.410;17.394;2024-02-15T05:45:14;22.60;34.60
43561;DHT22;32305;46.410;17.394;2024-02-15T05:47:44;22.60;34.70
43561;DHT22;32305;46.410;17.394;2024-02-15T05:50:11;22.60;34.60
43561;DHT22;32305;46.410;17.394;2024-02-15T05:52:38;22.60;34.50
43561;DHT22;32305;46.410;17.394;2024-02-15T05:55:07;22.60;34.50
43561;DHT22;32305;46.410;17.394;2024-02-15T05:57:34;22.60;34.50
43561;DHT22;32305;46.410;17.394;2024-02-15T06:00:01;22.60;34.60
43561;DHT22;32305;46.410;17.394;2024-02-15T06:02:42;22.60;34.50
43561;DHT22;32305;46.410;17.394;2024-02-15T06:05:10;22.60;35.10
43561;DHT22;32305;46.410;17.394;2024-02-15T06:07:37;22.60;34.50
43561;DHT22;32305;46.410;17.394;2024-02-15T06:10:05;22.60;34.50
43561;DHT22;32305;46.410;17.394;2024-02-15T06:12:34;22.60;34.50
43561;DHT22;32305;46.410;17.394;2024-02-15T06:15:03;22.60;34.40
43561;DHT22;32305;46.410;17.394;2024-02-15T06:17:32;22.60;34.30
43561;DHT22;32305;46.410;17.394;2024-02-15T06:19:59;22.60;34.40
43561;DHT22;32305;46.410;17.394;2024-02-15T06:22:26;22.60;34.50
43561;DHT22;32305;46.410;17.394;2024-02-15T06:24:53;22.60;34.50
43561;DHT22;32305;46.410;17.394;2024-02-15T06:27:20;22.70;34.40
43561;DHT22;32305;46.410;17.394;2024-02-15T06:29:47;22.80;34.30
43561;DHT22;32305;46.410;17.394;2024-02-15T06:32:34;22.80;34.10
43561;DHT22;32305;46.410;17.394;2024-02-15T06:35:21;22.80;34.10
43561;DHT22;32305;46.410;17.394;2024-02-15T06:38:08;22.90;34.10
43561;DHT22;32305;46.410;17.394;2024-02-15T06:40:55;22.90;33.90
43561;DHT22;32305;46.410;17.394;2024-02-15T06:43:22;22.90;34.00
43561;DHT22;32305;46.410;17.394;2024-02-15T06:45:49;22.90;34.00
43561;DHT22;32305;46.410;17.394;2024-02-15T06:48:18;22.90;33.80
43561;DHT22;32305;46.410;17.394;2024-02-15T06:50:47;22.90;33.80
43561;DHT22;32305;46.410;17.394;2024-02-15T06:53:14;23.00;33.70
43561;DHT22;32305;46.410;17.394;2024-02-15T06:55:41;23.00;33.60
43561;DHT22;32305;46.410;17.394;2024-02-15T06:58:08;23.00;33.50
43561;DHT22;32305;46.410;17.394;2024-02-15T07:00:36;23.00;33.40
43561;DHT22;32305;46.410;17.394;2024-02-15T07:03:06;23.00;33.30
43561;DHT22;32305;46.410;17.394;2024-02-15T07:05:35;23.10;33.30
43561;DHT22;32305;46.410;17.394;2024-02-15T07:08:02;23.10;33.40
43561;DHT22;32305;46.410;17.394;2024-02-15T07:10:29;23.10;33.60
43561;DHT22;32305;46.410;17.394;2024-02-15T07:12:57;23.10;33.80
43561;DHT22;32305;46.410;17.394;2024-02-15T07:15:24;23.10;33.90
43561;DHT22;32305;46.410;17.394;2024-02-15T07:17:51;23.20;33.90
43561;DHT22;32305;46.410;17.394;2024-02-15T07:20:21;23.20;33.80
43561;DHT22;32305;46.410;17.394;2024-02-15T07:22:49;23.20;34.10
43561;DHT22;32305;46.410;17.394;2024-02-15T07:25:17;23.20;33.40
43561;DHT22;32305;46.410;17.394;2024-02-15T07:27:44;23.30;33.50
43561;DHT22;32305;46.410;17.394;2024-02-15T07:30:11;23.30;33.40
43561;DHT22;32305;46.410;17.394;2024-02-15T07:32:40;23.30;33.40
43561;DHT22;32305;46.410;17.394;2024-02-15T07:35:07;23.40;34.00
43561;DHT22;32305;46.410;17.394;2024-02-15T07:37:35;23.40;34.10
43561;DHT22;32305;46.410;17.394;2024-02-15T07:40:02;23.40;34.20
43561;DHT22;32305;46.410;17.394;2024-02-15T07:42:30;23.50;34.10
43561;DHT22;32305;46.410;17.394;2024-02-15T07:44:57;23.50;34.10
43561;DHT22;32305;46.410;17.394;2024-02-15T07:47:24;23.60;34.00
43561;DHT22;32305;46.410;17.394;2024-02-15T07:49:54;23.60;33.90
43561;DHT22;32305;46.410;17.394;2024-02-15T07:52:22;23.60;33.80
43561;DHT22;32305;46.410;17.394;2024-02-15T07:54:49;23.70;33.70
43561;DHT22;32305;46.410;17.394;2024-02-15T07:57:16;23.70;33.50
43561;DHT22;32305;46.410;17.394;2024-02-15T07:59:43;23.70;33.40
43561;DHT22;32305;46.410;17.394;2024-02-15T08:02:11;23.80;33.50
43561;DHT22;32305;46.410;17.394;2024-02-15T08:04:39;23.80;33.50
43561;DHT22;32305;46.410;17.394;2024-02-15T08:07:08;23.90;33.50
43561;DHT22;32305;46.410;17.394;2024-02-15T08:09:37;23.90;33.50
43561;DHT22;32305;46.410;17.394;2024-02-15T08:12:08;23.90;33.50
43561;DHT22;32305;46.410;17.394;2024-02-15T08:14:35;24.00;33.60
43561;DHT22;32305;46.410;17.394;2024-02-15T08:17:02;24.00;33.40
43561;DHT22;32305;46.410;17.394;2024-02-15T08:19:30;24.10;33.50
43561;DHT22;32305;46.410;17.394;2024-02-15T08:21:57;24.10;33.50
43561;DHT22;32305;46.410;17.394;2024-02-15T08:24:24;24.10;33.40
43561;DHT22;32305;46.410;17.394;2024-02-15T08:26:51;24.20;33.60
43561;DHT22;32305;46.410;17.394;2024-02-15T08:29:19;24.30;33.60
43561;DHT22;32305;46.410;17.394;2024-02-15T08:31:46;24.30;33.70
43561;DHT22;32305;46.410;17.394;2024-02-15T08:34:15;24.30;33.70
43561;DHT22;32305;46.410;17.394;2024-02-15T08:36:45;24.40;33.50
43561;DHT22;32305;46.410;17.394;2024-02-15T08:39:14;24.40;33.50
43561;DHT22;32305;46.410;17.394;2024-02-15T08:41:43;24.50;33.50
43561;DHT22;32305;46.410;17.394;2024-02-15T08:44:10;24.50;33.50
43561;DHT22;32305;46.410;17.394;2024-02-15T08:46:42;24.50;33.30
43561;DHT22;32305;46.410;17.394;2024-02-15T08:49:09;24.60;33.40
43561;DHT22;32305;46.410;17.394;2024-02-15T08:51:39;24.60;33.20
43561;DHT22;32305;46.410;17.394;2024-02-15T08:54:06;24.60;33.20
43561;DHT22;32305;46.410;17.394;2024-02-15T08:56:33;24.70;33.10
43561;DHT22;32305;46.410;17.394;2024-02-15T08:59:01;24.70;33.40
43561;DHT22;32305;46.410;17.394;2024-02-15T09:01:30;24.70;32.90
43561;DHT22;32305;46.410;17.394;2024-02-15T09:03:57;24.80;33.00
43561;DHT22;32305;46.410;17.394;2024-02-15T09:06:24;24.80;33.00
43561;DHT22;32305;46.410;17.394;2024-02-15T09:08:52;24.80;32.90
43561;DHT22;32305;46.410;17.394;2024-02-15T09:11:19;24.90;32.90
43561;DHT22;32305;46.410;17.394;2024-02-15T09:13:47;24.90;32.80
43561;DHT22;32305;46.410;17.394;2024-02-15T09:16:16;24.90;32.70
43561;DHT22;32305;46.410;17.394;2024-02-15T09:18:43;25.00;32.80
43561;DHT22;32305;46.410;17.394;2024-02-15T09:21:13;25.00;32.70
43561;DHT22;32305;46.410;17.394;2024-02-15T09:23:41;25.10;32.60
43561;DHT22;32305;46.410;17.394;2024-02-15T09:26:08;25.10;32.30
43561;DHT22;32305;46.410;17.394;2024-02-15T09:28:36;25.10;32.40
43561;DHT22;32305;46.410;17.394;2024-02-15T09:31:04;25.20;32.50
43561;DHT22;32305;46.410;17.394;2024-02-15T09:33:30;25.20;32.50
43561;DHT22;32305;46.410;17.394;2024-02-15T09:35:57;25.30;32.40
43561;DHT22;32305;46.410;17.394;2024-02-15T09:38:24;25.30;32.30
43561;DHT22;32305;46.410;17.394;2024-02-15T09:40:52;25.30;32.20
43561;DHT22;32305;46.410;17.394;2024-02-15T09:43:19;25.40;31.80
43561;DHT22;32305;46.410;17.394;2024-02-15T09:45:46;25.40;31.60
43561;DHT22;32305;46.410;17.394;2024-02-15T09:48:14;25.40;31.50
43561;DHT22;32305;46.410;17.394;2024-02-15T09:50:45;25.40;31.60
43561;DHT22;32305;46.410;17.394;2024-02-15T09:53:15;25.40;31.80
43561;DHT22;32305;46.410;17.394;2024-02-15T09:55:42;25.50;31.50
43561;DHT22;32305;46.410;17.394;2024-02-15T09:58:09;25.50;31.40
43561;DHT22;32305;46.410;17.394;2024-02-15T10:00:38;25.60;31.40
43561;DHT22;32305;46.410;17.394;2024-02-15T10:03:06;25.60;31.50
43561;DHT22;32305;46.410;17.394;2024-02-15T10:05:35;25.70;31.60
43561;DHT22;32305;46.410;17.394;2024-02-15T10:08:02;25.70;31.50
43561;DHT22;32305;46.410;17.394;2024-02-15T10:10:30;25.70;31.20
43561;DHT22;32305;46.410;17.394;2024-02-15T10:12:57;25.80;31.40
43561;DHT22;32305;46.410;17.394;2024-02-15T10:15:31;25.80;31.50
43561;DHT22;32305;46.410;17.394;2024-02-15T10:18:01;25.80;31.50
43561;DHT22;32305;46.410;17.394;2024-02-15T10:20:28;25.80;31.50
43561;DHT22;32305;46.410;17.394;2024-02-15T10:23:14;25.90;31.50
43561;DHT22;32305;46.410;17.394;2024-02-15T10:25:45;25.90;31.30
43561;DHT22;32305;46.410;17.394;2024-02-15T10:28:14;25.90;31.20
43561;DHT22;32305;46.410;17.394;2024-02-15T10:30:42;26.00;31.30
43561;DHT22;32305;46.410;17.394;2024-02-15T10:33:19;26.00;31.50
43561;DHT22;32305;46.410;17.394;2024-02-15T10:35:51;26.00;30.60
43561;DHT22;32305;46.410;17.394;2024-02-15T10:38:31;26.00;30.20
43561;DHT22;32305;46.410;17.394;2024-02-15T10:41:02;26.00;30.90
43561;DHT22;32305;46.410;17.394;2024-02-15T10:43:34;25.90;31.00
43561;DHT22;32305;46.410;17.394;2024-02-15T10:46:01;25.90;30.90
43561;DHT22;32305;46.410;17.394;2024-02-15T10:48:29;25.90;31.00
43561;DHT22;32305;46.410;17.394;2024-02-15T10:50:59;25.90;31.00
43561;DHT22;32305;46.410;17.394;2024-02-15T10:53:26;25.90;31.10
43561;DHT22;32305;46.410;17.394;2024-02-15T10:58:46;25.90;31.10
43561;DHT22;32305;46.410;17.394;2024-02-15T11:01:15;25.90;30.80
43561;DHT22;32305;46.410;17.394;2024-02-15T11:03:50;25.90;30.70
43561;DHT22;32305;46.410;17.394;2024-02-15T11:06:18;26.00;30.80
43561;DHT22;32305;46.410;17.394;2024-02-15T11:08:47;26.00;30.80
43561;DHT22;32305;46.410;17.394;2024-02-15T11:11:15;26.00;30.70
43561;DHT22;32305;46.410;17.394;2024-02-15T11:13:42;26.00;31.20
43561;DHT22;32305;46.410;17.394;2024-02-15T11:16:38;26.00;30.40
43561;DHT22;32305;46.410;17.394;2024-02-15T11:19:01;26.00;30.40
43561;DHT22;32305;46.410;17.394;2024-02-15T11:24:27;26.00;30.40
43561;DHT22;32305;46.410;17.394;2024-02-15T11:26:58;26.00;30.50
43561;DHT22;32305;46.410;17.394;2024-02-15T11:32:34;26.00;30.30
43561;DHT22;32305;46.410;17.394;2024-02-15T11:35:02;26.10;30.30
43561;DHT22;32305;46.410;17.394;2024-02-15T11:37:48;26.10;30.50
43561;DHT22;32305;46.410;17.394;2024-02-15T11:40:23;26.10;30.50
43561;DHT22;32305;46.410;17.394;2024-02-15T11:42:51;26.10;30.30
43561;DHT22;32305;46.410;17.394;2024-02-15T11:45:20;26.10;30.20
43561;DHT22;32305;46.410;17.394;2024-02-15T11:47:48;26.10;30.30
43561;DHT22;32305;46.410;17.394;2024-02-15T11:50:18;26.10;30.40
43561;DHT22;32305;46.410;17.394;2024-02-15T11:52:45;26.10;30.30
43561;DHT22;32305;46.410;17.394;2024-02-15T11:55:18;26.10;30.40
43561;DHT22;32305;46.410;17.394;2024-02-15T11:57:55;26.10;30.60
43561;DHT22;32305;46.410;17.394;2024-02-15T12:00:29;26.10;30.50
43561;DHT22;32305;46.410;17.394;2024-02-15T12:03:17;26.10;30.50
43561;DHT22;32305;46.410;17.394;2024-02-15T12:06:06;26.10;30.60
43561;DHT22;32305;46.410;17.394;2024-02-15T12:08:54;26.10;30.60
43561;DHT22;32305;46.410;17.394;2024-02-15T12:11:41;26.10;30.40
43561;DHT22;32305;46.410;17.394;2024-02-15T12:14:28;26.10;30.40
43561;DHT22;32305;46.410;17.394;2024-02-15T12:17:15;26.10;30.40
43561;DHT22;32305;46.410;17.394;2024-02-15T12:20:02;26.20;30.30
43561;DHT22;32305;46.410;17.394;2024-02-15T12:22:45;26.20;30.30
43561;DHT22;32305;46.410;17.394;2024-02-15T12:25:14;26.20;30.30
43561;DHT22;32305;46.410;17.394;2024-02-15T12:27:42;26.20;30.00
43561;DHT22;32305;46.410;17.394;2024-02-15T12:30:14;26.30;30.10
43561;DHT22;32305;46.410;17.394;2024-02-15T12:32:42;26.30;30.00
43561;DHT22;32305;46.410;17.394;2024-02-15T12:35:12;26.30;30.00
43561;DHT22;32305;46.410;17.394;2024-02-15T12:37:44;26.30;30.00
43561;DHT22;32305;46.410;17.394;2024-02-15T12:40:15;26.30;30.00
43561;DHT22;32305;46.410;17.394;2024-02-15T12:42:46;26.40;30.10
43561;DHT22;32305;46.410;17.394;2024-02-15T12:45:17;26.40;30.40
43561;DHT22;32305;46.410;17.394;2024-02-15T12:47:51;26.40;30.00
43561;DHT22;32305;46.410;17.394;2024-02-15T12:50:19;26.40;30.00
43561;DHT22;32305;46.410;17.394;2024-02-15T12:52:49;26.40;29.90
43561;DHT22;32305;46.410;17.394;2024-02-15T12:55:22;26.40;30.00
43561;DHT22;32305;46.410;17.394;2024-02-15T12:57:52;26.40;30.10
43561;DHT22;32305;46.410;17.394;2024-02-15T13:00:23;26.40;29.90
43561;DHT22;32305;46.410;17.394;2024-02-15T13:02:55;26.30;29.70
43561;DHT22;32305;46.410;17.394;2024-02-15T13:05:24;26.30;29.70
43561;DHT22;32305;46.410;17.394;2024-02-15T13:07:52;26.30;29.70
43561;DHT22;32305;46.410;17.394;2024-02-15T13:10:22;26.20;29.70
43561;DHT22;32305;46.410;17.394;2024-02-15T13:12:50;26.20;29.70
43561;DHT22;32305;46.410;17.394;2024-02-15T13:15:17;26.20;29.90
43561;DHT22;32305;46.410;17.394;2024-02-15T13:17:47;26.10;29.90
43561;DHT22;32305;46.410;17.394;2024-02-15T13:20:21;26.10;30.00
43561;DHT22;32305;46.410;17.394;2024-02-15T13:22:56;26.10;29.80
43561;DHT22;32305;46.410;17.394;2024-02-15T13:25:27;26.10;29.90
43561;DHT22;32305;46.410;17.394;2024-02-15T13:27:54;26.10;29.80
43561;DHT22;32305;46.410;17.394;2024-02-15T13:30:21;26.10;29.80
43561;DHT22;32305;46.410;17.394;2024-02-15T13:32:50;26.10;29.70
43561;DHT22;32305;46.410;17.394;2024-02-15T13:35:17;26.10;30.20
43561;DHT22;32305;46.410;17.394;2024-02-15T13:37:47;26.00;29.70
43561;DHT22;32305;46.410;17.394;2024-02-15T13:40:16;26.00;29.70
43561;DHT22;32305;46.410;17.394;2024-02-15T13:42:44;26.00;29.80
43561;DHT22;32305;46.410;17.394;2024-02-15T13:45:16;26.00;29.80
43561;DHT22;32305;46.410;17.394;2024-02-15T13:47:44;26.00;29.80
43561;DHT22;32305;46.410;17.394;2024-02-15T13:50:12;26.10;29.80
43561;DHT22;32305;46.410;17.394;2024-02-15T13:52:43;26.10;29.80
43561;DHT22;32305;46.410;17.394;2024-02-15T13:55:11;26.10;30.00
43561;DHT22;32305;46.410;17.394;2024-02-15T13:57:39;26.10;29.80
43561;DHT22;32305;46.410;17.394;2024-02-15T14:00:06;26.10;29.80
43561;DHT22;32305;46.410;17.394;2024-02-15T14:02:40;26.10;29.70
43561;DHT22;32305;46.410;17.394;2024-02-15T14:05:08;26.10;30.20
43561;DHT22;32305;46.410;17.394;2024-02-15T14:07:36;26.10;29.70
43561;DHT22;32305;46.410;17.394;2024-02-15T14:10:03;26.10;29.70
43561;DHT22;32305;46.410;17.394;2024-02-15T14:12:30;26.10;29.80
43561;DHT22;32305;46.410;17.394;2024-02-15T14:14:57;26.10;29.80
43561;DHT22;32305;46.410;17.394;2024-02-15T14:17:24;26.10;29.80
43561;DHT22;32305;46.410;17.394;2024-02-15T14:19:51;26.10;30.00
43561;DHT22;32305;46.410;17.394;2024-02-15T14:22:18;26.10;29.90
43561;DHT22;32305;46.410;17.394;2024-02-15T14:24:45;26.00;29.90
43561;DHT22;32305;46.410;17.394;2024-02-15T14:27:12;26.00;29.90
43561;DHT22;32305;46.410;17.394;2024-02-15T14:29:41;25.90;30.00
43561;DHT22;32305;46.410;17.394;2024-02-15T14:32:28;25.90;30.30
43561;DHT22;32305;46.410;17.394;2024-02-15T14:35:15;25.90;30.60
43561;DHT22;32305;46.410;17.394;2024-02-15T14:37:43;25.90;30.50
43561;DHT22;32305;46.410;17.394;2024-02-15T14:40:11;25.90;30.70
43561;DHT22;32305;46.410;17.394;2024-02-15T14:42:44;25.90;30.80
43561;DHT22;32305;46.410;17.394;2024-02-15T14:45:22;25.90;30.90
43561;DHT22;32305;46.410;17.394;2024-02-15T14:47:49;25.90;30.70
43561;DHT22;32305;46.410;17.394;2024-02-15T14:50:16;25.90;30.70
43561;DHT22;32305;46.410;17.394;2024-02-15T14:52:44;25.90;30.50
43561;DHT22;32305;46.410;17.394;2024-02-15T14:55:11;25.90;30.60
43561;DHT22;32305;46.410;17.394;2024-02-15T14:57:38;25.90;30.70
43561;DHT22;32305;46.410;17.394;2024-02-15T15:00:05;25.80;30.70
43561;DHT22;32305;46.410;17.394;2024-02-15T15:02:38;25.90;30.80
43561;DHT22;32305;46.410;17.394;2024-02-15T15:05:05;25.80;30.90
43561;DHT22;32305;46.410;17.394;2024-02-15T15:07:52;25.80;31.00
43561;DHT22;32305;46.410;17.394;2024-02-15T15:10:38;25.80;30.90
43561;DHT22;32305;46.410;17.394;2024-02-15T15:13:25;25.80;30.80
43561;DHT22;32305;46.410;17.394;2024-02-15T15:15:53;25.80;30.90
43561;DHT22;32305;46.410;17.394;2024-02-15T15:18:20;25.80;30.90
43561;DHT22;32305;46.410;17.394;2024-02-15T15:20:48;25.80;31.00
43561;DHT22;32305;46.410;17.394;2024-02-15T15:23:15;25.80;31.10
43561;DHT22;32305;46.410;17.394;2024-02-15T15:25:42;25.80;31.20
43561;DHT22;32305;46.410;17.394;2024-02-15T15:28:10;25.70;31.20
43561;DHT22;32305;46.410;17.394;2024-02-15T15:30:37;25.70;31.10
43561;DHT22;32305;46.410;17.394;2024-02-15T15:33:04;25.70;31.20
43561;DHT22;32305;46.410;17.394;2024-02-15T15:35:31;25.70;31.30
43561;DHT22;32305;46.410;17.394;2024-02-15T15:37:59;25.70;31.20